createdAt,value
2018-09-03T00:02:05.997Z,6.60
2018-09-03T00:04:36.904Z,5.70
2018-09-03T00:07:06.889Z,6.12
2018-09-03T00:09:42.243Z,6.17
2018-09-03T00:12:13.043Z,6.25
2018-09-03T00:14:42.706Z,5.87
2018-09-03T00:17:12.406Z,6.50
2018-09-03T00:19:41.921Z,5.42
2018-09-03T00:22:11.603Z,5.60
2018-09-03T00:24:41.648Z,5.85
2018-09-03T00:27:12.552Z,5.92
2018-09-03T00:29:42.164Z,6.10
2018-09-03T00:32:16.144Z,6.08
2018-09-03T00:34:50.073Z,6.10
2018-09-03T00:37:25.238Z,6.97
2018-09-03T00:40:01.270Z,6.58
2018-09-03T00:42:36.454Z,6.25
2018-09-03T00:45:11.654Z,7.08
2018-09-03T00:47:41.161Z,7.37
2018-09-03T00:50:10.702Z,6.95
2018-09-03T00:52:40.347Z,7.33
2018-09-03T00:55:11.226Z,7.12
2018-09-03T00:57:41.845Z,7.40
2018-09-03T01:00:10.480Z,7.47
2018-09-03T01:05:07.032Z,7.65
2018-09-03T01:07:34.894Z,7.37
2018-09-03T01:10:02.829Z,8.30
2018-09-03T01:12:32.645Z,9.05
2018-09-03T01:15:00.498Z,8.00
2018-09-03T01:17:28.405Z,7.78
2018-09-03T01:19:56.261Z,8.38
2018-09-03T01:22:24.142Z,7.60
2018-09-03T01:24:52.156Z,8.75
2018-09-03T01:27:20.050Z,8.53
2018-09-03T01:29:47.932Z,9.25
2018-09-03T01:32:15.776Z,9.23
2018-09-03T01:34:43.655Z,9.30
2018-09-03T01:37:11.537Z,10.40
2018-09-03T01:39:39.382Z,9.23
2018-09-03T01:42:08.284Z,10.72
2018-09-03T01:44:36.159Z,9.95
2018-09-03T01:47:04.104Z,10.55
2018-09-03T01:49:32.010Z,9.95
2018-09-03T01:51:59.880Z,10.98
2018-09-03T01:54:54.852Z,10.70
2018-09-03T01:57:49.095Z,11.15
2018-09-03T02:00:16.933Z,12.30
2018-09-03T02:02:45.812Z,12.10
2018-09-03T02:05:13.722Z,12.35
2018-09-03T02:07:42.587Z,13.15
2018-09-03T02:10:10.435Z,12.55
2018-09-03T02:13:13.567Z,13.32
2018-09-03T02:15:41.462Z,13.58
2018-09-03T02:18:09.334Z,13.48
2018-09-03T02:20:37.233Z,13.20
2018-09-03T02:23:05.325Z,14.30
2018-09-03T02:25:33.193Z,13.38
2018-09-03T02:28:01.077Z,14.20
2018-09-03T02:30:28.980Z,13.85
2018-09-03T02:32:56.853Z,12.28
2018-09-03T02:35:24.713Z,11.90
2018-09-03T02:37:52.550Z,12.93
2018-09-03T02:40:20.486Z,12.18
2018-09-03T02:42:48.344Z,12.58
2018-09-03T02:45:16.172Z,12.13
2018-09-03T02:47:44.023Z,11.63
2018-09-03T02:50:12.880Z,11.68
2018-09-03T02:52:40.738Z,12.13
2018-09-03T02:55:08.674Z,11.95
2018-09-03T02:57:36.598Z,11.45
2018-09-03T03:00:04.745Z,11.73
2018-09-03T03:02:32.573Z,11.33
2018-09-03T03:05:00.425Z,11.68
2018-09-03T03:07:54.794Z,13.22
2018-09-03T03:10:22.785Z,11.85
2018-09-03T03:12:50.673Z,12.35
2018-09-03T03:15:18.513Z,12.68
2018-09-03T03:17:47.408Z,12.20
2018-09-03T03:20:15.268Z,13.32
2018-09-03T03:22:43.145Z,13.15
2018-09-03T03:25:11.013Z,14.05
2018-09-03T03:27:38.876Z,12.88
2018-09-03T03:30:24.923Z,13.00
2018-09-03T03:32:54.636Z,13.22
2018-09-03T03:35:22.543Z,14.18
2018-09-03T03:37:50.525Z,13.30
2018-09-03T03:40:19.013Z,13.08
2018-09-03T03:42:47.906Z,13.30
2018-09-03T03:45:15.771Z,13.22
2018-09-03T03:47:43.641Z,13.43
2018-09-03T03:50:11.518Z,13.72
2018-09-03T03:52:39.552Z,13.13
2018-09-03T03:55:07.871Z,13.75
2018-09-03T03:57:36.306Z,13.15
2018-09-03T04:00:04.299Z,14.25
2018-09-03T04:02:39.849Z,13.05
2018-09-03T04:05:07.768Z,13.00
2018-09-03T04:07:35.604Z,13.08
2018-09-03T04:10:03.481Z,13.28
2018-09-03T04:12:31.217Z,13.08
2018-09-03T04:14:58.971Z,12.53
2018-09-03T04:17:26.772Z,12.98
2018-09-03T04:20:09.258Z,13.40
2018-09-03T04:22:37.055Z,13.00
2018-09-03T04:25:04.904Z,13.55
2018-09-03T04:27:32.731Z,12.75
2018-09-03T04:30:01.560Z,12.20
2018-09-03T04:32:29.398Z,14.45
2018-09-03T04:34:57.198Z,12.88
2018-09-03T04:37:24.979Z,13.83
2018-09-03T04:39:52.723Z,13.25
2018-09-03T04:42:20.521Z,13.60
2018-09-03T04:44:48.362Z,12.93
2018-09-03T04:47:16.557Z,13.13
2018-09-03T04:49:44.309Z,14.13
2018-09-03T04:52:12.112Z,13.68
2018-09-03T04:54:39.950Z,13.08
2018-09-03T04:57:07.680Z,14.03
2018-09-03T04:59:48.480Z,12.90
2018-09-03T05:02:16.486Z,12.53
2018-09-03T05:04:44.384Z,13.25
2018-09-03T05:07:12.292Z,12.50
2018-09-03T05:09:40.211Z,11.97
2018-09-03T05:12:08.262Z,13.40
2018-09-03T05:14:36.466Z,12.33
2018-09-03T05:17:04.760Z,12.93
2018-09-03T05:19:32.621Z,13.28
2018-09-03T05:22:00.480Z,12.82
2018-09-03T05:24:28.405Z,15.93
2018-09-03T05:26:56.447Z,13.70
2018-09-03T05:29:24.610Z,13.45
2018-09-03T05:31:52.507Z,14.15
2018-09-03T05:34:20.415Z,15.25
2018-09-03T05:36:48.297Z,16.60
2018-09-03T05:39:16.164Z,13.18
2018-09-03T05:41:44.012Z,13.80
2018-09-03T05:44:11.877Z,12.73
2018-09-03T05:46:39.759Z,12.35
2018-09-03T05:49:07.682Z,12.70
2018-09-03T05:51:35.760Z,12.88
2018-09-03T05:54:03.626Z,11.68
2018-09-03T05:56:31.458Z,11.75
2018-09-03T05:58:59.409Z,12.50
2018-09-03T06:01:27.221Z,14.73
2018-09-03T06:03:55.030Z,41.05
2018-09-03T06:06:45.480Z,27.80
2018-09-03T06:09:16.302Z,10.68
2018-09-03T06:11:44.259Z,11.57
2018-09-03T06:14:12.166Z,10.60
2018-09-03T06:16:40.012Z,10.48
2018-09-03T06:19:07.828Z,9.75
2018-09-03T06:21:35.644Z,10.75
2018-09-03T06:24:03.503Z,11.48
2018-09-03T06:26:31.464Z,11.93
2018-09-03T06:28:59.291Z,11.38
2018-09-03T06:31:27.104Z,15.08
2018-09-03T06:33:54.892Z,11.80
2018-09-03T06:36:22.669Z,11.88
2018-09-03T06:38:50.565Z,11.75
2018-09-03T06:41:18.418Z,11.65
2018-09-03T06:43:46.309Z,10.88
2018-09-03T06:46:14.095Z,10.95
2018-09-03T06:48:41.930Z,10.78
2018-09-03T06:51:10.738Z,11.83
2018-09-03T06:53:38.574Z,11.73
2018-09-03T06:56:06.449Z,12.33
2018-09-03T06:58:34.273Z,12.20
2018-09-03T07:01:02.083Z,11.40
2018-09-03T07:03:29.849Z,12.45
2018-09-03T07:05:57.719Z,12.35
2018-09-03T07:08:25.560Z,11.83
2018-09-03T07:10:53.344Z,10.53
2018-09-03T07:19:05.443Z,12.10
2018-09-03T07:21:33.246Z,11.48
2018-09-03T07:24:01.021Z,10.25
2018-09-03T07:26:30.881Z,11.18
2018-09-03T07:28:58.723Z,9.70
2018-09-03T07:31:26.497Z,9.58
2018-09-03T07:33:54.333Z,11.35
2018-09-03T07:36:22.135Z,10.00
2018-09-03T07:38:49.911Z,9.83
2018-09-03T07:41:19.865Z,10.30
2018-09-03T07:43:47.648Z,9.85
2018-09-03T07:46:15.557Z,10.88
2018-09-03T07:48:44.375Z,9.60
2018-09-03T07:51:12.219Z,9.80
2018-09-03T07:53:40.018Z,10.05
2018-09-03T07:56:07.816Z,11.03
2018-09-03T07:58:36.670Z,11.00
2018-09-03T08:01:04.667Z,10.35
2018-09-03T08:03:32.433Z,9.53
2018-09-03T08:06:00.248Z,10.38
2018-09-03T08:08:29.122Z,10.08
2018-09-03T08:10:56.920Z,10.68
2018-09-03T08:13:30.354Z,10.00
2018-09-03T08:15:58.194Z,10.03
2018-09-03T08:18:25.998Z,9.50
2018-09-03T08:20:54.619Z,11.75
2018-09-03T08:23:43.833Z,11.95
2018-09-03T08:26:28.856Z,31.68
2018-09-03T08:28:56.748Z,10.68
2018-09-03T08:31:24.649Z,10.45
2018-09-03T08:33:53.558Z,10.75
2018-09-03T08:36:21.472Z,10.45
2018-09-03T08:38:57.204Z,9.03
2018-09-03T08:41:25.016Z,9.93
2018-09-03T08:43:52.831Z,10.25
2018-09-03T08:46:21.669Z,9.63
2018-09-03T08:48:49.447Z,8.50
2018-09-03T08:51:17.244Z,8.48
2018-09-03T08:53:45.046Z,7.85
2018-09-03T08:56:12.883Z,7.65
2018-09-03T08:58:40.681Z,8.48
2018-09-03T09:01:09.587Z,7.60
2018-09-03T09:03:41.019Z,7.15
2018-09-03T09:06:09.224Z,6.22
2018-09-03T09:08:38.280Z,6.80
2018-09-03T09:11:07.201Z,7.22
2018-09-03T09:13:35.142Z,6.72
2018-09-03T09:16:03.180Z,5.65
2018-09-03T09:18:31.103Z,5.65
2018-09-03T09:20:58.970Z,5.08
2018-09-03T09:23:26.769Z,5.45
2018-09-03T09:25:54.576Z,5.25
2018-09-03T09:28:23.429Z,4.83
2018-09-03T09:30:51.787Z,4.03
2018-09-03T09:33:20.651Z,4.25
2018-09-03T09:35:48.506Z,4.15
2018-09-03T09:38:16.335Z,3.95
2018-09-03T09:40:45.180Z,3.22
2018-09-03T09:43:13.061Z,3.40
2018-09-03T09:45:40.949Z,3.42
2018-09-03T09:48:08.826Z,2.75
2018-09-03T09:50:37.607Z,3.22
2018-09-03T09:53:05.523Z,3.55
2018-09-03T09:55:34.355Z,3.58
2018-09-03T10:06:14.606Z,4.17
2018-09-03T10:08:42.477Z,4.35
2018-09-03T10:11:10.261Z,4.33
2018-09-03T10:13:38.070Z,7.75
2018-09-03T10:16:05.898Z,4.47
2018-09-03T10:18:34.004Z,3.67
2018-09-03T10:21:01.864Z,3.55
2018-09-03T10:23:29.709Z,4.47
2018-09-03T10:25:57.568Z,5.08
2018-09-03T10:28:25.544Z,4.70
2018-09-03T10:30:53.347Z,4.10
2018-09-03T10:33:21.142Z,5.00
2018-09-03T10:35:49.029Z,4.60
2018-09-03T10:38:16.864Z,4.62
2018-09-03T10:40:45.679Z,4.70
2018-09-03T10:43:13.460Z,3.92
2018-09-03T10:45:43.811Z,4.72
2018-09-03T10:48:12.553Z,3.95
2018-09-03T10:50:40.420Z,4.80
2018-09-03T10:53:08.696Z,4.50
2018-09-03T10:55:36.740Z,4.10
2018-09-03T10:58:04.535Z,4.25
2018-09-03T11:00:32.383Z,3.60
2018-09-03T11:03:00.164Z,2.95
2018-09-03T11:05:28.560Z,3.33
2018-09-03T11:07:57.104Z,3.60
2018-09-03T11:10:25.485Z,3.33
2018-09-03T11:12:53.869Z,3.47
2018-09-03T11:15:22.422Z,3.02
2018-09-03T11:17:50.832Z,3.17
2018-09-03T11:20:29.463Z,2.77
2018-09-03T11:22:58.337Z,2.77
2018-09-03T11:25:28.813Z,3.40
2018-09-03T11:27:57.276Z,3.58
2018-09-03T11:30:26.266Z,3.20
2018-09-03T11:32:56.759Z,3.37
2018-09-03T11:35:25.423Z,2.67
2018-09-03T11:37:53.933Z,2.80
2018-09-03T11:40:23.124Z,2.08
2018-09-03T11:42:51.619Z,3.30
2018-09-03T11:45:21.090Z,3.40
2018-09-03T11:47:49.572Z,2.80
2018-09-03T11:50:18.763Z,2.67
2018-09-03T11:52:47.181Z,3.20
2018-09-03T11:55:15.769Z,2.70
2018-09-03T11:57:44.181Z,8.25
2018-09-03T12:00:18.364Z,5.83
2018-09-03T12:02:46.898Z,4.08
2018-09-03T12:05:15.286Z,4.67
2018-09-03T12:07:43.735Z,3.90
2018-09-03T12:10:12.282Z,3.60
2018-09-03T12:12:40.716Z,4.03
2018-09-03T12:15:16.676Z,5.10
2018-09-03T12:17:45.146Z,3.60
2018-09-03T12:20:13.569Z,3.90
2018-09-03T12:22:41.961Z,4.10
2018-09-03T12:25:10.365Z,3.55
2018-09-03T12:27:38.814Z,3.83
2018-09-03T12:30:07.701Z,3.58
2018-09-03T12:32:36.040Z,3.45
2018-09-03T12:35:04.510Z,3.55
2018-09-03T12:37:38.968Z,3.37
2018-09-03T12:40:07.432Z,2.35
2018-09-03T12:42:35.948Z,2.62
2018-09-03T12:45:04.561Z,2.92
2018-09-03T12:47:32.977Z,3.00
2018-09-03T12:50:01.514Z,2.67
2018-09-03T12:52:30.058Z,2.55
2018-09-03T12:54:58.558Z,2.98
2018-09-03T12:57:26.940Z,3.37
2018-09-03T13:00:05.135Z,2.85
2018-09-03T13:02:23.738Z,2.70
2018-09-03T13:04:52.126Z,3.00
2018-09-03T13:07:20.463Z,3.27
2018-09-03T13:09:48.887Z,3.40
2018-09-03T13:12:17.464Z,3.27
2018-09-03T13:14:45.854Z,3.90
2018-09-03T13:17:14.352Z,3.95
2018-09-03T13:19:42.775Z,4.03
2018-09-03T13:22:12.225Z,4.25
2018-09-03T13:24:40.691Z,3.92
2018-09-03T13:27:09.180Z,3.30
2018-09-03T13:29:37.631Z,6.45
2018-09-03T13:32:05.992Z,3.77
2018-09-03T13:34:34.447Z,3.62
2018-09-03T13:37:02.883Z,3.70
2018-09-03T13:39:31.280Z,3.90
2018-09-03T13:41:59.743Z,3.80
2018-09-03T13:44:29.256Z,3.83
2018-09-03T13:46:57.673Z,3.70
2018-09-03T13:49:26.042Z,3.90
2018-09-03T13:51:54.414Z,3.87
2018-09-03T13:54:22.962Z,3.83
2018-09-03T13:56:51.379Z,3.33
2018-09-03T13:59:19.863Z,3.58
2018-09-03T14:01:48.280Z,3.83
2018-09-03T14:04:16.666Z,4.22
2018-09-03T14:06:45.132Z,4.72
2018-09-03T14:09:13.557Z,5.42
2018-09-03T14:11:42.296Z,4.03
2018-09-03T14:14:10.703Z,4.15
2018-09-03T14:16:39.200Z,3.58
2018-09-03T14:19:07.652Z,3.65
2018-09-03T14:21:36.205Z,4.42
2018-09-03T14:24:04.804Z,4.30
2018-09-03T14:26:33.235Z,4.40
2018-09-03T14:29:01.762Z,4.25
2018-09-03T14:31:30.167Z,4.20
2018-09-03T14:33:58.671Z,4.65
2018-09-03T14:36:27.091Z,4.92
2018-09-03T14:38:55.604Z,4.70
2018-09-03T14:41:24.129Z,5.37
2018-09-03T14:43:52.526Z,5.30
2018-09-03T14:46:20.925Z,5.62
2018-09-03T14:48:49.320Z,5.58
2018-09-03T14:51:18.121Z,5.75
2018-09-03T14:57:16.011Z,6.80
2018-09-03T14:59:44.331Z,6.33
2018-09-03T15:02:12.299Z,7.37
2018-09-03T15:04:40.425Z,7.42
2018-09-03T15:07:08.571Z,6.95
2018-09-03T15:09:36.523Z,7.85
2018-09-03T15:12:04.527Z,7.60
2018-09-03T15:14:32.575Z,7.95
2018-09-03T15:17:00.617Z,7.78
2018-09-03T15:19:29.615Z,8.43
2018-09-03T15:21:57.560Z,8.15
2018-09-03T15:24:25.686Z,8.15
2018-09-03T15:26:53.642Z,8.45
2018-09-03T15:29:21.596Z,7.97
2018-09-03T15:31:49.631Z,9.03
2018-09-03T15:34:17.622Z,8.63
2018-09-03T15:36:45.658Z,8.75
2018-09-03T15:39:13.652Z,8.75
2018-09-03T15:41:41.819Z,9.05
2018-09-03T15:44:09.817Z,9.73
2018-09-03T15:46:37.748Z,8.90
2018-09-03T15:49:05.890Z,8.10
2018-09-03T15:51:33.750Z,8.60
2018-09-03T15:54:01.879Z,8.68
2018-09-03T15:56:29.759Z,8.88
2018-09-03T15:58:58.607Z,9.40
2018-09-03T16:01:26.400Z,8.33
2018-09-03T16:03:54.468Z,9.33
2018-09-03T16:06:22.261Z,8.85
2018-09-03T16:08:50.114Z,9.50
2018-09-03T16:11:19.810Z,10.75
2018-09-03T16:13:47.873Z,9.65
2018-09-03T16:16:15.696Z,10.03
2018-09-03T16:18:44.898Z,10.78
2018-09-03T16:21:12.712Z,10.53
2018-09-03T16:23:40.556Z,14.10
2018-09-03T16:26:08.350Z,13.00
2018-09-03T16:28:36.173Z,14.63
2018-09-03T16:31:03.992Z,13.93
2018-09-03T16:33:32.066Z,12.28
2018-09-03T16:35:59.930Z,13.93
2018-09-03T16:38:27.793Z,13.95
2018-09-03T16:40:55.633Z,13.75
2018-09-03T16:43:23.521Z,9.55
2018-09-03T16:45:52.422Z,12.63
2018-09-03T16:48:20.177Z,10.88
2018-09-03T16:50:48.114Z,12.60
2018-09-03T16:53:15.895Z,11.50
2018-09-03T16:55:43.859Z,11.22
2018-09-03T16:58:11.716Z,11.85
2018-09-03T17:00:39.624Z,11.63
2018-09-03T17:03:07.434Z,12.90
2018-09-03T17:05:35.327Z,13.53
2018-09-03T17:08:03.239Z,13.58
2018-09-03T17:10:31.108Z,12.95
2018-09-03T17:12:58.912Z,13.62
2018-09-03T17:15:26.808Z,12.70
2018-09-03T17:17:54.633Z,11.65
2018-09-03T17:20:26.288Z,11.15
2018-09-03T17:22:54.354Z,12.10
2018-09-03T17:25:22.345Z,12.60
2018-09-03T17:27:50.458Z,12.58
2018-09-03T17:30:18.560Z,13.60
2018-09-03T17:32:46.507Z,14.05
2018-09-03T17:35:14.469Z,13.48
2018-09-03T17:37:42.402Z,14.43
2018-09-03T17:40:10.366Z,18.02
2018-09-03T17:42:38.267Z,14.98
2018-09-03T17:45:06.687Z,14.35
2018-09-03T17:47:34.802Z,14.25
2018-09-03T17:50:02.759Z,13.48
2018-09-03T17:52:30.716Z,19.90
2018-09-03T17:54:58.674Z,14.93
2018-09-03T17:57:26.576Z,15.00
2018-09-03T17:59:54.541Z,16.23
2018-09-03T18:02:22.875Z,16.10
2018-09-03T18:04:50.989Z,18.15
2018-09-03T18:07:19.740Z,17.87
2018-09-03T18:09:47.768Z,18.62
2018-09-03T18:12:15.970Z,18.62
2018-09-03T18:14:43.868Z,18.17
2018-09-03T18:17:11.798Z,18.95
2018-09-03T18:19:39.818Z,22.75
2018-09-03T18:22:07.780Z,20.65
2018-09-03T18:24:35.642Z,18.62
2018-09-03T18:27:03.564Z,19.40
2018-09-03T18:29:31.956Z,20.72
2018-09-03T18:32:00.848Z,18.35
2018-09-03T18:34:29.801Z,18.50
2018-09-03T18:36:58.949Z,20.02
2018-09-03T18:39:27.845Z,21.50
2018-09-03T18:41:56.986Z,19.65
2018-09-03T18:44:25.176Z,18.40
2018-09-03T18:46:53.767Z,19.73
2018-09-03T18:49:22.261Z,18.52
2018-09-03T18:51:51.034Z,18.45
2018-09-03T18:54:19.370Z,18.65
2018-09-03T18:56:47.829Z,19.50
2018-09-03T18:59:17.311Z,19.32
2018-09-03T19:01:45.789Z,17.37
2018-09-03T19:04:14.085Z,18.45
2018-09-03T19:06:42.431Z,18.17
2018-09-03T19:09:10.819Z,18.90
2018-09-03T19:11:39.338Z,18.95
2018-09-03T19:14:11.328Z,19.90
2018-09-03T19:20:39.809Z,18.57
2018-09-03T19:23:09.293Z,17.90
2018-09-03T19:25:37.992Z,17.42
2018-09-03T19:28:06.894Z,17.25
2018-09-03T19:30:35.897Z,18.62
2018-09-03T19:33:05.133Z,19.57
2018-09-03T19:35:34.415Z,20.62
2018-09-03T19:38:03.556Z,20.72
2018-09-03T19:40:32.512Z,21.33
2018-09-03T19:43:02.186Z,21.90
2018-09-03T19:45:31.051Z,21.37
2018-09-03T19:48:00.339Z,21.60
2018-09-03T19:50:29.805Z,20.95
2018-09-03T19:52:59.237Z,20.57
2018-09-03T19:55:28.097Z,19.48
2018-09-03T19:57:57.958Z,19.20
2018-09-03T20:00:28.215Z,20.88
2018-09-03T20:03:00.197Z,22.42
2018-09-03T20:05:31.934Z,23.67
2018-09-03T20:10:41.279Z,20.80
2018-09-03T20:13:14.729Z,21.20
2018-09-03T20:15:45.378Z,20.88
2018-09-03T20:18:13.940Z,20.75
2018-09-03T20:20:42.427Z,21.45
2018-09-03T20:23:11.005Z,21.17
2018-09-03T20:25:39.334Z,21.55
2018-09-03T20:28:07.848Z,22.00
2018-09-03T20:30:36.514Z,24.65
2018-09-03T20:33:05.257Z,20.48
2018-09-03T20:35:34.704Z,22.00
2018-09-03T20:38:04.312Z,20.55
2018-09-03T20:40:33.073Z,24.80
2018-09-03T20:43:10.786Z,22.40
2018-09-03T20:45:39.919Z,22.37
2018-09-03T20:48:09.000Z,22.25
2018-09-03T20:50:38.169Z,24.52
2018-09-03T20:53:06.616Z,23.60
2018-09-03T20:55:36.002Z,23.40
2018-09-03T20:58:06.638Z,20.85
2018-09-03T21:00:35.501Z,21.68
2018-09-03T21:03:04.821Z,22.32
2018-09-03T21:05:34.090Z,20.75
2018-09-03T21:08:04.507Z,21.30
2018-09-03T21:10:33.702Z,22.58
2018-09-03T21:13:02.964Z,22.52
2018-09-03T21:15:31.647Z,21.17
2018-09-03T21:18:00.631Z,22.40
2018-09-03T21:20:29.476Z,23.75
2018-09-03T21:22:58.148Z,22.90
2018-09-03T21:25:26.445Z,23.10
2018-09-03T21:27:55.656Z,23.22
2018-09-03T21:30:24.389Z,23.52
2018-09-03T21:32:52.830Z,23.67
2018-09-03T21:35:21.313Z,23.57
2018-09-03T21:37:49.736Z,24.55
2018-09-03T21:40:18.120Z,16.82
2018-09-03T21:42:46.550Z,19.87
2018-09-03T21:45:15.088Z,19.17
2018-09-03T21:47:43.651Z,18.50
2018-09-03T21:50:12.413Z,18.77
2018-09-03T21:52:40.859Z,19.10
2018-09-03T21:55:09.435Z,20.37
2018-09-03T21:57:37.818Z,20.50
2018-09-03T22:00:06.733Z,20.25
2018-09-03T22:02:35.420Z,19.25
2018-09-03T22:05:03.883Z,20.05
2018-09-03T22:07:32.324Z,20.65
2018-09-03T22:10:00.748Z,19.02
2018-09-03T22:12:29.457Z,21.48
2018-09-03T22:14:58.642Z,21.12
2018-09-03T22:17:27.162Z,20.82
2018-09-03T22:19:55.392Z,23.15
2018-09-03T22:22:23.684Z,22.30
2018-09-03T22:24:51.952Z,22.13
2018-09-03T22:27:20.328Z,23.22
2018-09-03T22:29:48.548Z,23.10
2018-09-03T22:32:16.881Z,23.83
2018-09-03T22:34:45.122Z,24.27
2018-09-03T22:37:13.272Z,25.35
2018-09-03T22:39:41.700Z,23.02
2018-09-03T22:42:10.244Z,20.48
2018-09-03T22:44:38.463Z,25.32
2018-09-03T22:47:07.355Z,25.02
2018-09-03T22:49:35.808Z,27.05
2018-09-03T22:52:04.314Z,27.35
2018-09-03T22:54:32.844Z,25.90
2018-09-03T22:57:01.339Z,28.60
2018-09-03T22:59:29.650Z,28.77
2018-09-03T23:01:57.956Z,26.80
2018-09-03T23:04:26.410Z,27.45
2018-09-03T23:06:54.523Z,25.27
2018-09-03T23:09:22.439Z,29.80
2018-09-03T23:14:23.732Z,28.50
2018-09-03T23:16:52.706Z,24.45
2018-09-03T23:19:20.706Z,23.50
2018-09-03T23:21:48.525Z,23.80
2018-09-03T23:24:16.688Z,26.52
2018-09-03T23:26:44.528Z,19.32
2018-09-03T23:29:12.479Z,22.35
2018-09-03T23:31:40.337Z,20.60
2018-09-03T23:34:08.135Z,21.37
2018-09-03T23:36:38.114Z,20.05
2018-09-03T23:39:06.676Z,23.87
2018-09-03T23:41:34.674Z,21.97
2018-09-03T23:44:03.769Z,23.02
2018-09-03T23:47:05.601Z,24.70
2018-09-03T23:49:37.176Z,25.32
2018-09-03T23:52:15.955Z,23.70
2018-09-03T23:54:44.174Z,24.00
2018-09-03T23:57:12.027Z,25.20
2018-09-03T23:59:52.949Z,23.45
